sensor_id;sensor_type;location;lat;lon;timestamp;P1;durP1;ratioP1;P2;durP2;ratioP2
36259;SDS011;22296;50.824;5.644;2023-07-31T00:01:16;4.93;;;2.20;;
36259;SDS011;22296;50.824;5.644;2023-07-31T00:03:43;4.70;;;2.08;;
36259;SDS011;22296;50.824;5.644;2023-07-31T00:06:10;5.30;;;2.22;;
36259;SDS011;22296;50.824;5.644;2023-07-31T00:08:36;4.03;;;1.90;;
36259;SDS011;22296;50.824;5.644;2023-07-31T00:11:03;3.95;;;2.22;;
36259;SDS011;22296;50.824;5.644;2023-07-31T00:13:30;4.68;;;2.30;;
36259;SDS011;22296;50.824;5.644;2023-07-31T00:15:56;5.30;;;2.40;;
36259;SDS011;22296;50.824;5.644;2023-07-31T00:18:23;4.40;;;2.20;;
36259;SDS011;22296;50.824;5.644;2023-07-31T00:20:50;4.85;;;2.22;;
36259;SDS011;22296;50.824;5.644;2023-07-31T00:23:17;4.53;;;2.30;;
36259;SDS011;22296;50.824;5.644;2023-07-31T00:25:44;4.88;;;2.20;;
36259;SDS011;22296;50.824;5.644;2023-07-31T00:28:11;3.80;;;2.20;;
36259;SDS011;22296;50.824;5.644;2023-07-31T00:30:37;3.75;;;2.10;;
36259;SDS011;22296;50.824;5.644;2023-07-31T00:33:04;4.60;;;2.30;;
36259;SDS011;22296;50.824;5.644;2023-07-31T00:35:31;3.38;;;2.20;;
36259;SDS011;22296;50.824;5.644;2023-07-31T00:37:58;3.90;;;2.20;;
36259;SDS011;22296;50.824;5.644;2023-07-31T00:40:25;3.15;;;1.90;;
36259;SDS011;22296;50.824;5.644;2023-07-31T00:42:52;3.67;;;2.00;;
36259;SDS011;22296;50.824;5.644;2023-07-31T00:45:19;3.63;;;2.22;;
36259;SDS011;22296;50.824;5.644;2023-07-31T00:47:46;5.05;;;2.20;;
36259;SDS011;22296;50.824;5.644;2023-07-31T00:50:13;4.75;;;2.35;;
36259;SDS011;22296;50.824;5.644;2023-07-31T00:52:41;3.72;;;2.03;;
36259;SDS011;22296;50.824;5.644;2023-07-31T00:55:07;3.25;;;1.90;;
36259;SDS011;22296;50.824;5.644;2023-07-31T00:57:35;3.00;;;2.13;;
36259;SDS011;22296;50.824;5.644;2023-07-31T01:00:03;3.57;;;1.90;;
36259;SDS011;22296;50.824;5.644;2023-07-31T01:02:30;3.45;;;2.03;;
36259;SDS011;22296;50.824;5.644;2023-07-31T01:04:57;4.97;;;2.10;;
36259;SDS011;22296;50.824;5.644;2023-07-31T01:07:34;3.15;;;1.95;;
36259;SDS011;22296;50.824;5.644;2023-07-31T01:10:21;3.50;;;2.33;;
36259;SDS011;22296;50.824;5.644;2023-07-31T01:12:53;3.67;;;2.10;;
36259;SDS011;22296;50.824;5.644;2023-07-31T01:15:23;4.00;;;1.90;;
36259;SDS011;22296;50.824;5.644;2023-07-31T01:17:50;3.90;;;2.15;;
36259;SDS011;22296;50.824;5.644;2023-07-31T01:20:17;4.82;;;2.28;;
36259;SDS011;22296;50.824;5.644;2023-07-31T01:31:37;4.50;;;2.20;;
36259;SDS011;22296;50.824;5.644;2023-07-31T01:34:06;3.75;;;2.20;;
36259;SDS011;22296;50.824;5.644;2023-07-31T01:36:36;3.97;;;2.20;;
36259;SDS011;22296;50.824;5.644;2023-07-31T01:39:03;3.95;;;2.20;;
36259;SDS011;22296;50.824;5.644;2023-07-31T01:41:30;4.60;;;2.30;;
36259;SDS011;22296;50.824;5.644;2023-07-31T01:43:57;5.20;;;2.00;;
36259;SDS011;22296;50.824;5.644;2023-07-31T01:46:24;3.90;;;2.30;;
36259;SDS011;22296;50.824;5.644;2023-07-31T01:48:51;4.07;;;2.40;;
36259;SDS011;22296;50.824;5.644;2023-07-31T01:51:18;3.38;;;2.40;;
36259;SDS011;22296;50.824;5.644;2023-07-31T01:53:44;5.28;;;2.10;;
36259;SDS011;22296;50.824;5.644;2023-07-31T01:56:11;3.40;;;1.88;;
36259;SDS011;22296;50.824;5.644;2023-07-31T01:58:38;4.03;;;2.03;;
36259;SDS011;22296;50.824;5.644;2023-07-31T02:01:05;3.28;;;2.38;;
36259;SDS011;22296;50.824;5.644;2023-07-31T02:03:33;4.30;;;2.23;;
36259;SDS011;22296;50.824;5.644;2023-07-31T02:06:00;4.00;;;2.22;;
36259;SDS011;22296;50.824;5.644;2023-07-31T02:08:27;3.55;;;2.30;;
36259;SDS011;22296;50.824;5.644;2023-07-31T02:10:53;3.70;;;2.25;;
36259;SDS011;22296;50.824;5.644;2023-07-31T02:13:20;4.68;;;2.20;;
36259;SDS011;22296;50.824;5.644;2023-07-31T02:15:47;3.83;;;2.15;;
36259;SDS011;22296;50.824;5.644;2023-07-31T02:18:14;4.45;;;2.40;;
36259;SDS011;22296;50.824;5.644;2023-07-31T02:20:41;4.68;;;2.40;;
36259;SDS011;22296;50.824;5.644;2023-07-31T02:23:08;3.67;;;2.30;;
36259;SDS011;22296;50.824;5.644;2023-07-31T02:25:35;2.90;;;1.95;;
36259;SDS011;22296;50.824;5.644;2023-07-31T02:28:02;5.15;;;2.10;;
36259;SDS011;22296;50.824;5.644;2023-07-31T02:30:28;3.75;;;2.40;;
36259;SDS011;22296;50.824;5.644;2023-07-31T02:32:55;4.57;;;2.53;;
36259;SDS011;22296;50.824;5.644;2023-07-31T02:35:22;4.40;;;2.20;;
36259;SDS011;22296;50.824;5.644;2023-07-31T02:37:49;3.85;;;2.25;;
36259;SDS011;22296;50.824;5.644;2023-07-31T02:40:17;3.70;;;2.20;;
36259;SDS011;22296;50.824;5.644;2023-07-31T02:42:44;3.50;;;1.88;;
36259;SDS011;22296;50.824;5.644;2023-07-31T02:45:11;4.45;;;2.40;;
36259;SDS011;22296;50.824;5.644;2023-07-31T02:47:37;3.35;;;2.17;;
36259;SDS011;22296;50.824;5.644;2023-07-31T02:50:05;4.50;;;2.40;;
36259;SDS011;22296;50.824;5.644;2023-07-31T02:52:32;4.05;;;2.47;;
36259;SDS011;22296;50.824;5.644;2023-07-31T02:54:59;4.47;;;2.50;;
36259;SDS011;22296;50.824;5.644;2023-07-31T02:57:25;5.50;;;2.15;;
36259;SDS011;22296;50.824;5.644;2023-07-31T02:59:52;3.65;;;2.28;;
36259;SDS011;22296;50.824;5.644;2023-07-31T03:02:19;3.67;;;2.40;;
36259;SDS011;22296;50.824;5.644;2023-07-31T03:04:46;4.15;;;2.30;;
36259;SDS011;22296;50.824;5.644;2023-07-31T03:07:13;5.18;;;2.40;;
36259;SDS011;22296;50.824;5.644;2023-07-31T03:09:40;3.95;;;2.13;;
36259;SDS011;22296;50.824;5.644;2023-07-31T03:12:07;4.05;;;2.28;;
36259;SDS011;22296;50.824;5.644;2023-07-31T03:14:35;4.35;;;2.40;;
36259;SDS011;22296;50.824;5.644;2023-07-31T03:17:02;4.85;;;2.63;;
36259;SDS011;22296;50.824;5.644;2023-07-31T03:19:32;3.97;;;2.80;;
36259;SDS011;22296;50.824;5.644;2023-07-31T03:21:59;4.38;;;2.40;;
36259;SDS011;22296;50.824;5.644;2023-07-31T03:24:28;3.28;;;2.08;;
36259;SDS011;22296;50.824;5.644;2023-07-31T03:26:55;5.30;;;2.67;;
36259;SDS011;22296;50.824;5.644;2023-07-31T03:29:22;3.40;;;2.45;;
36259;SDS011;22296;50.824;5.644;2023-07-31T03:34:18;6.40;;;2.38;;
36259;SDS011;22296;50.824;5.644;2023-07-31T03:36:45;4.20;;;2.67;;
36259;SDS011;22296;50.824;5.644;2023-07-31T03:39:11;4.20;;;2.47;;
36259;SDS011;22296;50.824;5.644;2023-07-31T03:41:38;3.45;;;2.28;;
36259;SDS011;22296;50.824;5.644;2023-07-31T03:44:05;2.95;;;2.17;;
36259;SDS011;22296;50.824;5.644;2023-07-31T03:46:32;4.63;;;2.63;;
36259;SDS011;22296;50.824;5.644;2023-07-31T03:49:00;3.33;;;2.53;;
36259;SDS011;22296;50.824;5.644;2023-07-31T03:51:26;2.92;;;2.30;;
36259;SDS011;22296;50.824;5.644;2023-07-31T03:53:53;3.78;;;2.42;;
36259;SDS011;22296;50.824;5.644;2023-07-31T03:56:20;3.97;;;2.50;;
36259;SDS011;22296;50.824;5.644;2023-07-31T03:58:46;5.20;;;3.00;;
36259;SDS011;22296;50.824;5.644;2023-07-31T04:01:13;3.50;;;2.00;;
36259;SDS011;22296;50.824;5.644;2023-07-31T04:03:40;4.10;;;3.20;;
36259;SDS011;22296;50.824;5.644;2023-07-31T04:06:07;3.90;;;2.50;;
36259;SDS011;22296;50.824;5.644;2023-07-31T04:08:34;3.80;;;2.45;;
36259;SDS011;22296;50.824;5.644;2023-07-31T04:11:01;3.90;;;2.22;;
36259;SDS011;22296;50.824;5.644;2023-07-31T04:13:29;4.40;;;2.28;;
36259;SDS011;22296;50.824;5.644;2023-07-31T04:15:56;2.92;;;2.25;;
36259;SDS011;22296;50.824;5.644;2023-07-31T04:18:24;5.03;;;2.45;;
36259;SDS011;22296;50.824;5.644;2023-07-31T04:20:52;2.97;;;2.22;;
36259;SDS011;22296;50.824;5.644;2023-07-31T04:23:19;3.13;;;2.08;;
36259;SDS011;22296;50.824;5.644;2023-07-31T04:25:46;4.35;;;2.60;;
36259;SDS011;22296;50.824;5.644;2023-07-31T04:28:13;3.83;;;2.15;;
36259;SDS011;22296;50.824;5.644;2023-07-31T04:30:40;3.47;;;2.35;;
36259;SDS011;22296;50.824;5.644;2023-07-31T04:33:06;3.00;;;2.30;;
36259;SDS011;22296;50.824;5.644;2023-07-31T04:35:33;4.60;;;2.30;;
36259;SDS011;22296;50.824;5.644;2023-07-31T04:38:00;3.63;;;2.45;;
36259;SDS011;22296;50.824;5.644;2023-07-31T04:40:27;3.92;;;2.20;;
36259;SDS011;22296;50.824;5.644;2023-07-31T04:42:54;4.47;;;2.28;;
36259;SDS011;22296;50.824;5.644;2023-07-31T04:45:20;4.43;;;2.85;;
36259;SDS011;22296;50.824;5.644;2023-07-31T04:47:47;2.38;;;2.00;;
36259;SDS011;22296;50.824;5.644;2023-07-31T04:50:14;4.05;;;2.28;;
36259;SDS011;22296;50.824;5.644;2023-07-31T04:52:41;4.38;;;2.20;;
36259;SDS011;22296;50.824;5.644;2023-07-31T04:55:07;3.95;;;2.40;;
36259;SDS011;22296;50.824;5.644;2023-07-31T04:57:35;3.00;;;1.98;;
36259;SDS011;22296;50.824;5.644;2023-07-31T05:00:01;3.67;;;2.40;;
36259;SDS011;22296;50.824;5.644;2023-07-31T05:02:29;3.72;;;2.47;;
36259;SDS011;22296;50.824;5.644;2023-07-31T05:04:56;3.35;;;2.33;;
36259;SDS011;22296;50.824;5.644;2023-07-31T05:07:23;2.55;;;2.33;;
36259;SDS011;22296;50.824;5.644;2023-07-31T05:09:50;3.08;;;1.95;;
36259;SDS011;22296;50.824;5.644;2023-07-31T05:12:17;3.22;;;2.33;;
36259;SDS011;22296;50.824;5.644;2023-07-31T05:14:44;5.43;;;2.60;;
36259;SDS011;22296;50.824;5.644;2023-07-31T05:17:10;3.20;;;2.13;;
36259;SDS011;22296;50.824;5.644;2023-07-31T05:19:37;3.97;;;2.30;;
36259;SDS011;22296;50.824;5.644;2023-07-31T05:22:04;4.07;;;2.20;;
36259;SDS011;22296;50.824;5.644;2023-07-31T05:24:31;3.40;;;2.38;;
36259;SDS011;22296;50.824;5.644;2023-07-31T05:26:58;3.65;;;2.30;;
36259;SDS011;22296;50.824;5.644;2023-07-31T05:29:25;4.22;;;2.22;;
36259;SDS011;22296;50.824;5.644;2023-07-31T05:31:52;4.35;;;1.98;;
36259;SDS011;22296;50.824;5.644;2023-07-31T05:34:18;2.78;;;2.03;;
36259;SDS011;22296;50.824;5.644;2023-07-31T05:36:45;2.83;;;2.05;;
36259;SDS011;22296;50.824;5.644;2023-07-31T05:39:12;3.85;;;2.17;;
36259;SDS011;22296;50.824;5.644;2023-07-31T05:41:39;2.95;;;2.15;;
36259;SDS011;22296;50.824;5.644;2023-07-31T05:44:05;3.50;;;2.03;;
36259;SDS011;22296;50.824;5.644;2023-07-31T05:46:32;3.20;;;1.80;;
36259;SDS011;22296;50.824;5.644;2023-07-31T05:48:59;3.33;;;2.00;;
36259;SDS011;22296;50.824;5.644;2023-07-31T05:51:27;3.72;;;2.20;;
36259;SDS011;22296;50.824;5.644;2023-07-31T05:53:54;3.65;;;2.25;;
36259;SDS011;22296;50.824;5.644;2023-07-31T05:56:21;2.90;;;1.95;;
36259;SDS011;22296;50.824;5.644;2023-07-31T05:58:48;3.55;;;1.98;;
36259;SDS011;22296;50.824;5.644;2023-07-31T06:01:15;2.47;;;2.08;;
36259;SDS011;22296;50.824;5.644;2023-07-31T06:03:43;3.33;;;2.20;;
36259;SDS011;22296;50.824;5.644;2023-07-31T06:06:10;3.05;;;1.85;;
36259;SDS011;22296;50.824;5.644;2023-07-31T06:08:37;3.58;;;2.13;;
36259;SDS011;22296;50.824;5.644;2023-07-31T06:11:04;4.25;;;2.17;;
36259;SDS011;22296;50.824;5.644;2023-07-31T06:13:32;4.10;;;2.25;;
36259;SDS011;22296;50.824;5.644;2023-07-31T06:15:58;4.32;;;2.05;;
36259;SDS011;22296;50.824;5.644;2023-07-31T06:18:26;3.67;;;2.08;;
36259;SDS011;22296;50.824;5.644;2023-07-31T06:20:53;3.90;;;1.95;;
36259;SDS011;22296;50.824;5.644;2023-07-31T06:23:20;3.55;;;2.33;;
36259;SDS011;22296;50.824;5.644;2023-07-31T06:25:47;3.83;;;2.20;;
36259;SDS011;22296;50.824;5.644;2023-07-31T06:28:14;5.50;;;1.95;;
36259;SDS011;22296;50.824;5.644;2023-07-31T06:30:41;2.53;;;1.85;;
36259;SDS011;22296;50.824;5.644;2023-07-31T06:33:08;5.88;;;2.15;;
36259;SDS011;22296;50.824;5.644;2023-07-31T06:35:35;4.47;;;2.17;;
36259;SDS011;22296;50.824;5.644;2023-07-31T06:38:02;4.15;;;2.25;;
36259;SDS011;22296;50.824;5.644;2023-07-31T06:40:29;4.15;;;2.28;;
36259;SDS011;22296;50.824;5.644;2023-07-31T06:42:56;4.05;;;2.45;;
36259;SDS011;22296;50.824;5.644;2023-07-31T06:45:23;3.28;;;2.20;;
36259;SDS011;22296;50.824;5.644;2023-07-31T06:47:50;4.55;;;2.15;;
36259;SDS011;22296;50.824;5.644;2023-07-31T06:50:17;2.97;;;1.80;;
36259;SDS011;22296;50.824;5.644;2023-07-31T06:52:44;4.35;;;2.50;;
36259;SDS011;22296;50.824;5.644;2023-07-31T06:55:29;2.15;;;1.60;;
36259;SDS011;22296;50.824;5.644;2023-07-31T06:57:56;5.50;;;2.03;;
36259;SDS011;22296;50.824;5.644;2023-07-31T07:00:23;3.65;;;1.70;;
36259;SDS011;22296;50.824;5.644;2023-07-31T07:02:50;5.93;;;2.03;;
36259;SDS011;22296;50.824;5.644;2023-07-31T07:05:17;3.20;;;1.75;;
36259;SDS011;22296;50.824;5.644;2023-07-31T07:07:44;4.78;;;2.00;;
36259;SDS011;22296;50.824;5.644;2023-07-31T07:10:11;4.20;;;2.15;;
36259;SDS011;22296;50.824;5.644;2023-07-31T07:12:37;4.93;;;2.00;;
36259;SDS011;22296;50.824;5.644;2023-07-31T07:15:04;3.95;;;2.00;;
36259;SDS011;22296;50.824;5.644;2023-07-31T07:17:32;4.95;;;2.30;;
36259;SDS011;22296;50.824;5.644;2023-07-31T07:19:59;3.05;;;1.95;;
36259;SDS011;22296;50.824;5.644;2023-07-31T07:22:27;4.73;;;2.33;;
36259;SDS011;22296;50.824;5.644;2023-07-31T07:24:54;2.78;;;2.10;;
36259;SDS011;22296;50.824;5.644;2023-07-31T07:27:21;3.03;;;2.03;;
36259;SDS011;22296;50.824;5.644;2023-07-31T07:29:49;2.90;;;1.83;;
36259;SDS011;22296;50.824;5.644;2023-07-31T07:32:18;5.80;;;2.20;;
36259;SDS011;22296;50.824;5.644;2023-07-31T07:34:46;3.50;;;2.28;;
36259;SDS011;22296;50.824;5.644;2023-07-31T07:37:14;3.60;;;2.08;;
36259;SDS011;22296;50.824;5.644;2023-07-31T07:39:40;3.67;;;2.00;;
36259;SDS011;22296;50.824;5.644;2023-07-31T07:42:07;2.85;;;1.90;;
36259;SDS011;22296;50.824;5.644;2023-07-31T07:44:34;4.43;;;2.28;;
36259;SDS011;22296;50.824;5.644;2023-07-31T07:47:00;3.08;;;1.67;;
36259;SDS011;22296;50.824;5.644;2023-07-31T07:49:27;3.40;;;2.20;;
36259;SDS011;22296;50.824;5.644;2023-07-31T07:51:54;3.80;;;1.98;;
36259;SDS011;22296;50.824;5.644;2023-07-31T07:54:21;3.22;;;2.13;;
36259;SDS011;22296;50.824;5.644;2023-07-31T07:56:48;3.33;;;2.03;;
36259;SDS011;22296;50.824;5.644;2023-07-31T07:59:16;3.67;;;1.90;;
36259;SDS011;22296;50.824;5.644;2023-07-31T08:01:42;4.38;;;2.00;;
36259;SDS011;22296;50.824;5.644;2023-07-31T08:04:09;3.92;;;2.22;;
36259;SDS011;22296;50.824;5.644;2023-07-31T08:06:36;3.95;;;2.20;;
36259;SDS011;22296;50.824;5.644;2023-07-31T08:09:04;3.20;;;1.73;;
36259;SDS011;22296;50.824;5.644;2023-07-31T08:13:59;2.80;;;1.80;;
36259;SDS011;22296;50.824;5.644;2023-07-31T08:16:26;3.17;;;1.90;;
36259;SDS011;22296;50.824;5.644;2023-07-31T08:18:53;3.53;;;1.73;;
36259;SDS011;22296;50.824;5.644;2023-07-31T08:21:21;2.95;;;1.92;;
36259;SDS011;22296;50.824;5.644;2023-07-31T08:23:48;2.47;;;1.90;;
36259;SDS011;22296;50.824;5.644;2023-07-31T08:26:18;3.15;;;1.90;;
36259;SDS011;22296;50.824;5.644;2023-07-31T08:28:45;2.17;;;1.58;;
36259;SDS011;22296;50.824;5.644;2023-07-31T08:31:12;3.97;;;1.90;;
36259;SDS011;22296;50.824;5.644;2023-07-31T08:33:39;2.35;;;1.95;;
36259;SDS011;22296;50.824;5.644;2023-07-31T08:36:06;3.17;;;1.88;;
36259;SDS011;22296;50.824;5.644;2023-07-31T08:38:33;2.03;;;1.67;;
36259;SDS011;22296;50.824;5.644;2023-07-31T08:41:02;3.13;;;2.08;;
36259;SDS011;22296;50.824;5.644;2023-07-31T08:43:29;2.83;;;1.70;;
36259;SDS011;22296;50.824;5.644;2023-07-31T08:45:57;2.05;;;1.55;;
36259;SDS011;22296;50.824;5.644;2023-07-31T08:48:24;2.40;;;1.83;;
36259;SDS011;22296;50.824;5.644;2023-07-31T08:50:52;2.90;;;1.73;;
36259;SDS011;22296;50.824;5.644;2023-07-31T08:53:19;2.20;;;1.60;;
36259;SDS011;22296;50.824;5.644;2023-07-31T08:55:47;2.83;;;1.70;;
36259;SDS011;22296;50.824;5.644;2023-07-31T08:58:15;2.63;;;1.90;;
36259;SDS011;22296;50.824;5.644;2023-07-31T09:00:43;2.20;;;1.70;;
36259;SDS011;22296;50.824;5.644;2023-07-31T09:03:17;2.65;;;1.60;;
36259;SDS011;22296;50.824;5.644;2023-07-31T09:05:46;2.60;;;1.75;;
36259;SDS011;22296;50.824;5.644;2023-07-31T09:08:14;2.95;;;1.80;;
36259;SDS011;22296;50.824;5.644;2023-07-31T09:10:44;3.33;;;1.60;;
36259;SDS011;22296;50.824;5.644;2023-07-31T09:13:18;3.15;;;1.70;;
36259;SDS011;22296;50.824;5.644;2023-07-31T09:15:45;2.75;;;1.63;;
36259;SDS011;22296;50.824;5.644;2023-07-31T09:18:12;2.28;;;1.67;;
36259;SDS011;22296;50.824;5.644;2023-07-31T09:20:43;2.60;;;1.80;;
36259;SDS011;22296;50.824;5.644;2023-07-31T09:23:12;4.68;;;1.90;;
36259;SDS011;22296;50.824;5.644;2023-07-31T09:25:41;3.83;;;1.85;;
36259;SDS011;22296;50.824;5.644;2023-07-31T09:28:11;2.83;;;1.52;;
36259;SDS011;22296;50.824;5.644;2023-07-31T09:30:48;2.55;;;1.67;;
36259;SDS011;22296;50.824;5.644;2023-07-31T09:33:17;2.83;;;1.97;;
36259;SDS011;22296;50.824;5.644;2023-07-31T09:35:45;2.17;;;1.70;;
36259;SDS011;22296;50.824;5.644;2023-07-31T09:38:15;2.05;;;1.60;;
36259;SDS011;22296;50.824;5.644;2023-07-31T09:40:46;3.22;;;1.70;;
36259;SDS011;22296;50.824;5.644;2023-07-31T09:43:18;3.08;;;1.58;;
36259;SDS011;22296;50.824;5.644;2023-07-31T09:45:47;3.17;;;1.67;;
36259;SDS011;22296;50.824;5.644;2023-07-31T09:48:15;3.55;;;1.70;;
36259;SDS011;22296;50.824;5.644;2023-07-31T09:50:44;2.30;;;1.63;;
36259;SDS011;22296;50.824;5.644;2023-07-31T09:53:13;3.38;;;1.77;;
36259;SDS011;22296;50.824;5.644;2023-07-31T09:55:40;2.95;;;1.73;;
36259;SDS011;22296;50.824;5.644;2023-07-31T09:58:11;2.17;;;1.57;;
36259;SDS011;22296;50.824;5.644;2023-07-31T10:00:39;1.75;;;1.65;;
36259;SDS011;22296;50.824;5.644;2023-07-31T10:03:07;3.80;;;1.73;;
36259;SDS011;22296;50.824;5.644;2023-07-31T10:05:42;2.53;;;1.40;;
36259;SDS011;22296;50.824;5.644;2023-07-31T10:08:18;1.92;;;1.33;;
36259;SDS011;22296;50.824;5.644;2023-07-31T10:10:49;2.22;;;1.70;;
36259;SDS011;22296;50.824;5.644;2023-07-31T10:13:16;2.35;;;1.42;;
36259;SDS011;22296;50.824;5.644;2023-07-31T10:15:44;1.92;;;1.50;;
36259;SDS011;22296;50.824;5.644;2023-07-31T10:18:12;1.88;;;1.40;;
36259;SDS011;22296;50.824;5.644;2023-07-31T10:20:40;2.03;;;1.48;;
36259;SDS011;22296;50.824;5.644;2023-07-31T10:23:07;1.83;;;1.27;;
36259;SDS011;22296;50.824;5.644;2023-07-31T10:25:35;2.42;;;1.58;;
36259;SDS011;22296;50.824;5.644;2023-07-31T10:28:01;1.48;;;1.30;;
36259;SDS011;22296;50.824;5.644;2023-07-31T10:30:29;2.22;;;1.50;;
36259;SDS011;22296;50.824;5.644;2023-07-31T10:32:57;2.10;;;1.27;;
36259;SDS011;22296;50.824;5.644;2023-07-31T10:35:24;2.30;;;1.30;;
36259;SDS011;22296;50.824;5.644;2023-07-31T10:37:52;2.55;;;1.20;;
36259;SDS011;22296;50.824;5.644;2023-07-31T10:40:19;1.45;;;1.20;;
36259;SDS011;22296;50.824;5.644;2023-07-31T10:42:52;1.63;;;1.33;;
36259;SDS011;22296;50.824;5.644;2023-07-31T10:45:24;1.48;;;1.38;;
36259;SDS011;22296;50.824;5.644;2023-07-31T10:50:31;1.42;;;1.23;;
36259;SDS011;22296;50.824;5.644;2023-07-31T10:52:59;1.50;;;1.20;;
36259;SDS011;22296;50.824;5.644;2023-07-31T10:55:40;1.98;;;1.30;;
36259;SDS011;22296;50.824;5.644;2023-07-31T10:58:09;1.77;;;1.30;;
36259;SDS011;22296;50.824;5.644;2023-07-31T11:00:38;1.83;;;1.30;;
36259;SDS011;22296;50.824;5.644;2023-07-31T11:03:10;1.45;;;1.10;;
36259;SDS011;22296;50.824;5.644;2023-07-31T11:13:30;1.38;;;1.10;;
36259;SDS011;22296;50.824;5.644;2023-07-31T11:15:57;1.70;;;1.15;;
36259;SDS011;22296;50.824;5.644;2023-07-31T11:18:26;1.75;;;1.27;;
36259;SDS011;22296;50.824;5.644;2023-07-31T11:20:53;1.88;;;1.50;;
36259;SDS011;22296;50.824;5.644;2023-07-31T11:23:21;2.17;;;1.30;;
36259;SDS011;22296;50.824;5.644;2023-07-31T11:25:48;1.60;;;1.40;;
36259;SDS011;22296;50.824;5.644;2023-07-31T11:28:17;2.35;;;1.33;;
36259;SDS011;22296;50.824;5.644;2023-07-31T11:30:45;2.72;;;1.40;;
36259;SDS011;22296;50.824;5.644;2023-07-31T11:33:13;1.60;;;1.10;;
36259;SDS011;22296;50.824;5.644;2023-07-31T11:35:44;2.47;;;1.40;;
36259;SDS011;22296;50.824;5.644;2023-07-31T11:38:20;1.73;;;1.13;;
36259;SDS011;22296;50.824;5.644;2023-07-31T11:40:54;1.48;;;1.10;;
36259;SDS011;22296;50.824;5.644;2023-07-31T11:43:23;1.77;;;1.30;;
36259;SDS011;22296;50.824;5.644;2023-07-31T11:45:51;1.88;;;1.30;;
36259;SDS011;22296;50.824;5.644;2023-07-31T11:50:48;1.42;;;1.15;;
36259;SDS011;22296;50.824;5.644;2023-07-31T11:53:19;2.13;;;1.48;;
36259;SDS011;22296;50.824;5.644;2023-07-31T11:56:05;2.37;;;1.60;;
36259;SDS011;22296;50.824;5.644;2023-07-31T11:58:34;1.73;;;1.58;;
36259;SDS011;22296;50.824;5.644;2023-07-31T12:01:02;1.67;;;1.55;;
36259;SDS011;22296;50.824;5.644;2023-07-31T12:03:31;2.90;;;1.50;;
36259;SDS011;22296;50.824;5.644;2023-07-31T12:05:59;2.28;;;1.52;;
36259;SDS011;22296;50.824;5.644;2023-07-31T12:08:26;2.05;;;1.55;;
36259;SDS011;22296;50.824;5.644;2023-07-31T12:10:54;1.55;;;1.33;;
36259;SDS011;22296;50.824;5.644;2023-07-31T12:13:27;2.20;;;1.50;;
36259;SDS011;22296;50.824;5.644;2023-07-31T12:15:55;2.05;;;1.40;;
36259;SDS011;22296;50.824;5.644;2023-07-31T12:18:25;2.13;;;1.70;;
36259;SDS011;22296;50.824;5.644;2023-07-31T12:20:54;1.98;;;1.50;;
36259;SDS011;22296;50.824;5.644;2023-07-31T12:23:23;2.08;;;1.58;;
36259;SDS011;22296;50.824;5.644;2023-07-31T12:26:02;2.65;;;1.60;;
36259;SDS011;22296;50.824;5.644;2023-07-31T12:28:36;2.33;;;1.70;;
36259;SDS011;22296;50.824;5.644;2023-07-31T12:31:04;2.80;;;1.63;;
36259;SDS011;22296;50.824;5.644;2023-07-31T12:33:32;2.40;;;1.70;;
36259;SDS011;22296;50.824;5.644;2023-07-31T12:38:29;3.20;;;1.55;;
36259;SDS011;22296;50.824;5.644;2023-07-31T12:40:56;3.42;;;1.67;;
36259;SDS011;22296;50.824;5.644;2023-07-31T12:43:23;3.05;;;2.00;;
36259;SDS011;22296;50.824;5.644;2023-07-31T12:45:50;2.30;;;2.00;;
36259;SDS011;22296;50.824;5.644;2023-07-31T12:48:17;3.30;;;1.55;;
36259;SDS011;22296;50.824;5.644;2023-07-31T12:50:44;2.35;;;1.73;;
36259;SDS011;22296;50.824;5.644;2023-07-31T12:53:11;2.10;;;1.63;;
36259;SDS011;22296;50.824;5.644;2023-07-31T12:55:38;3.00;;;1.52;;
36259;SDS011;22296;50.824;5.644;2023-07-31T12:58:04;2.67;;;1.95;;
36259;SDS011;22296;50.824;5.644;2023-07-31T13:00:31;2.88;;;1.83;;
36259;SDS011;22296;50.824;5.644;2023-07-31T13:02:59;2.15;;;1.45;;
36259;SDS011;22296;50.824;5.644;2023-07-31T13:05:27;2.37;;;1.67;;
36259;SDS011;22296;50.824;5.644;2023-07-31T13:07:54;2.33;;;1.70;;
36259;SDS011;22296;50.824;5.644;2023-07-31T13:10:22;2.80;;;1.60;;
36259;SDS011;22296;50.824;5.644;2023-07-31T13:12:49;1.77;;;1.50;;
36259;SDS011;22296;50.824;5.644;2023-07-31T13:15:16;2.20;;;1.63;;
36259;SDS011;22296;50.824;5.644;2023-07-31T13:17:43;2.67;;;1.80;;
36259;SDS011;22296;50.824;5.644;2023-07-31T13:20:10;2.95;;;1.83;;
36259;SDS011;22296;50.824;5.644;2023-07-31T13:22:37;2.38;;;1.83;;
36259;SDS011;22296;50.824;5.644;2023-07-31T13:25:04;2.88;;;1.98;;
36259;SDS011;22296;50.824;5.644;2023-07-31T13:27:31;2.22;;;1.67;;
36259;SDS011;22296;50.824;5.644;2023-07-31T13:29:58;2.30;;;1.90;;
36259;SDS011;22296;50.824;5.644;2023-07-31T13:32:25;4.18;;;1.80;;
36259;SDS011;22296;50.824;5.644;2023-07-31T13:34:52;3.28;;;1.77;;
36259;SDS011;22296;50.824;5.644;2023-07-31T13:37:19;2.63;;;1.85;;
36259;SDS011;22296;50.824;5.644;2023-07-31T13:39:46;3.20;;;1.92;;
36259;SDS011;22296;50.824;5.644;2023-07-31T13:42:12;2.15;;;1.80;;
36259;SDS011;22296;50.824;5.644;2023-07-31T13:44:39;3.10;;;2.15;;
36259;SDS011;22296;50.824;5.644;2023-07-31T13:47:07;3.88;;;2.15;;
36259;SDS011;22296;50.824;5.644;2023-07-31T13:49:34;2.00;;;1.60;;
36259;SDS011;22296;50.824;5.644;2023-07-31T13:52:02;2.60;;;1.88;;
36259;SDS011;22296;50.824;5.644;2023-07-31T13:54:29;2.33;;;2.00;;
36259;SDS011;22296;50.824;5.644;2023-07-31T13:56:57;3.53;;;1.95;;
36259;SDS011;22296;50.824;5.644;2023-07-31T13:59:24;2.70;;;1.98;;
36259;SDS011;22296;50.824;5.644;2023-07-31T14:01:50;2.83;;;2.00;;
36259;SDS011;22296;50.824;5.644;2023-07-31T14:04:17;2.10;;;1.90;;
36259;SDS011;22296;50.824;5.644;2023-07-31T14:06:44;4.22;;;2.17;;
36259;SDS011;22296;50.824;5.644;2023-07-31T14:09:11;3.70;;;1.80;;
36259;SDS011;22296;50.824;5.644;2023-07-31T14:11:38;2.25;;;1.95;;
36259;SDS011;22296;50.824;5.644;2023-07-31T14:14:08;2.95;;;2.00;;
36259;SDS011;22296;50.824;5.644;2023-07-31T14:16:36;2.47;;;2.00;;
36259;SDS011;22296;50.824;5.644;2023-07-31T14:19:03;3.20;;;2.22;;
36259;SDS011;22296;50.824;5.644;2023-07-31T14:21:30;2.88;;;1.98;;
36259;SDS011;22296;50.824;5.644;2023-07-31T14:23:56;3.65;;;2.08;;
36259;SDS011;22296;50.824;5.644;2023-07-31T14:26:23;2.60;;;1.90;;
36259;SDS011;22296;50.824;5.644;2023-07-31T14:28:50;2.47;;;2.00;;
36259;SDS011;22296;50.824;5.644;2023-07-31T14:31:17;2.78;;;2.05;;
36259;SDS011;22296;50.824;5.644;2023-07-31T14:33:43;3.00;;;2.10;;
36259;SDS011;22296;50.824;5.644;2023-07-31T14:36:10;3.78;;;2.20;;
36259;SDS011;22296;50.824;5.644;2023-07-31T14:38:37;2.63;;;2.00;;
36259;SDS011;22296;50.824;5.644;2023-07-31T14:41:04;2.70;;;1.88;;
36259;SDS011;22296;50.824;5.644;2023-07-31T14:43:30;2.28;;;1.83;;
36259;SDS011;22296;50.824;5.644;2023-07-31T14:45:57;2.60;;;2.08;;
36259;SDS011;22296;50.824;5.644;2023-07-31T14:48:26;2.95;;;2.22;;
36259;SDS011;22296;50.824;5.644;2023-07-31T14:50:53;3.28;;;2.20;;
36259;SDS011;22296;50.824;5.644;2023-07-31T14:53:21;3.25;;;2.00;;
36259;SDS011;22296;50.824;5.644;2023-07-31T14:55:48;2.67;;;1.90;;
36259;SDS011;22296;50.824;5.644;2023-07-31T14:58:14;3.35;;;1.90;;
36259;SDS011;22296;50.824;5.644;2023-07-31T15:00:43;4.07;;;2.30;;
36259;SDS011;22296;50.824;5.644;2023-07-31T15:03:10;2.63;;;1.90;;
36259;SDS011;22296;50.824;5.644;2023-07-31T15:05:37;2.35;;;2.10;;
36259;SDS011;22296;50.824;5.644;2023-07-31T15:08:04;3.20;;;2.20;;
36259;SDS011;22296;50.824;5.644;2023-07-31T15:10:31;2.78;;;2.15;;
36259;SDS011;22296;50.824;5.644;2023-07-31T15:12:58;2.80;;;2.10;;
36259;SDS011;22296;50.824;5.644;2023-07-31T15:15:25;3.45;;;2.17;;
36259;SDS011;22296;50.824;5.644;2023-07-31T15:17:51;2.85;;;1.85;;
36259;SDS011;22296;50.824;5.644;2023-07-31T15:20:18;2.72;;;2.10;;